KMSN

Dane County Regional-Truax Field Airport

Madison, Wisconsin, USA
KMSN 182320Z 1900/1924 23005KT P6SM SCT250 FM190600 22005KT P6SM SCT120 BKN200 FM191600 25007KT P6SM BKN060 FM191800 27008KT P6SM SCT025 BKN040 FM192000 31010KT P6SM BKN025
Issued Valid From Valid To
Nov-18 @ 23:20 UTC
(2 hours ago)
Nov-19 @ 00:00 UTC
(58 minutes ago)
Nov-20 @ 00:00 UTC
(in 23 hours)
Nov-19 @ 00:00 to Nov-19 @ 06:00
KMSN 182320Z 1900/1924 23005KT P6SM SCT250
Wind Visibility Clouds
230° at 5 knots Greater than 6 miles
  • Scattered at 25,000' AGL
From Nov-19 @ 06:00 to Nov-19 @ 16:00
FM190600 22005KT P6SM SCT120 BKN200
Wind Visibility Clouds
220° at 5 knots Greater than 6 miles
  • Scattered at 12,000' AGL
  • Broken at 20,000' AGL
From Nov-19 @ 16:00 to Nov-19 @ 18:00
FM191600 25007KT P6SM BKN060
Wind Visibility Clouds
250° at 7 knots Greater than 6 miles
  • Broken at 6,000' AGL
From Nov-19 @ 18:00 to Nov-19 @ 20:00
FM191800 27008KT P6SM SCT025 BKN040
Wind Visibility Clouds
270° at 8 knots Greater than 6 miles
  • Scattered at 2,500' AGL
  • Broken at 4,000' AGL
From Nov-19 @ 20:00 to Nov-20 @ 00:00
FM192000 31010KT P6SM BKN025
Wind Visibility Clouds
310° at 10 knots Greater than 6 miles
  • Broken at 2,500' AGL
KMSN 182320Z 1900/1924 23005KT P6SM SCT250 FM190600 22005KT P6SM SCT120 BKN200 FM191600 25007KT P6SM BKN060 FM191800 27008KT P6SM SCT025 BKN040 FM192000 31010KT P6SM BKN025
Issued Nov-18 @ 23:20 UTC
(2 hours ago)
Valid From Nov-19 @ 00:00 UTC
(58 minutes ago)
Valid To Nov-20 @ 00:00 UTC
(in 23 hours)
Nov-19 @ 00:00 - Nov-19 @ 06:00
Wind Visibility
230° at 5 knots Greater than 6 miles
Clouds
  • Scattered at 25,000' AGL
From Nov-19 @ 06:00 - Nov-19 @ 16:00
Wind Visibility
220° at 5 knots Greater than 6 miles
Clouds
  • Scattered at 12,000' AGL
  • Broken at 20,000' AGL
From Nov-19 @ 16:00 - Nov-19 @ 18:00
Wind Visibility
250° at 7 knots Greater than 6 miles
Clouds
  • Broken at 6,000' AGL
From Nov-19 @ 18:00 - Nov-19 @ 20:00
Wind Visibility
270° at 8 knots Greater than 6 miles
Clouds
  • Scattered at 2,500' AGL
  • Broken at 4,000' AGL
From Nov-19 @ 20:00 - Nov-20 @ 00:00
Wind Visibility
310° at 10 knots Greater than 6 miles
Clouds
  • Broken at 2,500' AGL